Time;durP1;ratioP1;P1;durP2;ratioP2;P2;SDS_P1;SDS_P2;PMS_P1;PMS_P2;Temp;Humidity;BMP_temperature;BMP_pressure;BME280_temperature;BME280_humidity;BME280_pressure;Samples;Min_cycle;Max_cycle;Signal;HPM_P1;HPM_P2
2022/03/09 00:00:12;;;;;;;14.25;9.35;;;;;;;-3.5;35.75293;95623.02;;;;
2022/03/09 00:01:13;;;;;;;14.25;9.35;;;;;;;-3.5;35.75293;95623.02;;;;
2022/03/09 00:02:14;;;;;;;14.25;9.35;;;;;;;-3.5;35.75293;95623.02;;;;
2022/03/09 00:03:14;;;;;;;14.25;9.35;;;;;;;-3.5;35.75293;95623.02;;;;
2022/03/09 00:04:15;;;;;;;14.25;9.35;;;;;;;-3.5;35.75293;95623.02;;;;
2022/03/09 00:05:15;;;;;;;15.45;9.749998;;;;;;;-3.67;36.61816;95629.85;;;;
2022/03/09 00:06:16;;;;;;;15.45;9.749998;;;;;;;-3.67;36.61816;95629.85;;;;
2022/03/09 00:07:16;;;;;;;15.45;9.749998;;;;;;;-3.67;36.61816;95629.85;;;;
2022/03/09 00:08:17;;;;;;;15.45;9.749998;;;;;;;-3.67;36.61816;95629.85;;;;
2022/03/09 00:09:17;;;;;;;15.45;9.749998;;;;;;;-3.67;36.61816;95629.85;;;;
2022/03/09 00:10:18;;;;;;;15.45;9.749998;;;;;;;-3.67;36.61816;95629.85;;;;
2022/03/09 00:11:18;;;;;;;15.45;9.749998;;;;;;;-3.67;36.61816;95629.85;;;;
2022/03/09 00:12:19;;;;;;;15.45;9.749998;;;;;;;-3.67;36.61816;95629.85;;;;
2022/03/09 00:13:20;;;;;;;15.45;9.749998;;;;;;;-3.67;36.61816;95629.85;;;;
2022/03/09 00:14:21;;;;;;;15.45;9.749998;;;;;;;-3.67;36.61816;95629.85;;;;
2022/03/09 00:15:21;;;;;;;12.9;8.749999;;;;;;;-3.7;37.31641;95645.54;;;;
2022/03/09 00:16:22;;;;;;;12.9;8.749999;;;;;;;-3.7;37.31641;95645.54;;;;
2022/03/09 00:17:22;;;;;;;12.9;8.749999;;;;;;;-3.7;37.31641;95645.54;;;;
2022/03/09 00:18:23;;;;;;;12.9;8.749999;;;;;;;-3.7;37.31641;95645.54;;;;
2022/03/09 00:19:24;;;;;;;12.9;8.749999;;;;;;;-3.7;37.31641;95645.54;;;;
2022/03/09 00:20:25;;;;;;;12.9;8.749999;;;;;;;-3.7;37.31641;95645.54;;;;
2022/03/09 00:21:25;;;;;;;12.9;8.749999;;;;;;;-3.7;37.31641;95645.54;;;;
2022/03/09 00:22:25;;;;;;;12.9;8.749999;;;;;;;-3.7;37.31641;95645.54;;;;
2022/03/09 00:23:26;;;;;;;12.9;8.749999;;;;;;;-3.7;37.31641;95645.54;;;;
2022/03/09 00:24:27;;;;;;;12.9;8.749999;;;;;;;-3.7;37.31641;95645.54;;;;
2022/03/09 00:25:27;;;;;;;12.9;8.749999;;;;;;;-3.7;37.31641;95645.54;;;;
2022/03/09 00:26:27;;;;;;;13.45;8.799998;;;;;;;-3.71;37.84863;95654.44;;;;
2022/03/09 00:27:29;;;;;;;13.45;8.799998;;;;;;;-3.71;37.84863;95654.44;;;;
2022/03/09 00:28:30;;;;;;;13.45;8.799998;;;;;;;-3.71;37.84863;95654.44;;;;
2022/03/09 00:29:30;;;;;;;13.45;8.799998;;;;;;;-3.71;37.84863;95654.44;;;;
2022/03/09 00:30:31;;;;;;;13.45;8.799998;;;;;;;-3.71;37.84863;95654.44;;;;
2022/03/09 00:31:32;;;;;;;13.45;8.799998;;;;;;;-3.71;37.84863;95654.44;;;;
2022/03/09 00:32:32;;;;;;;13.45;8.799998;;;;;;;-3.71;37.84863;95654.44;;;;
2022/03/09 00:33:33;;;;;;;13.45;8.799998;;;;;;;-3.71;37.84863;95654.44;;;;
2022/03/09 00:34:34;;;;;;;13.45;8.799998;;;;;;;-3.71;37.84863;95654.44;;;;
2022/03/09 00:35:34;;;;;;;13.45;8.799998;;;;;;;-3.71;37.84863;95654.44;;;;
2022/03/09 00:36:37;;;;;;;13.45;8.799998;;;;;;;-3.71;37.84863;95654.44;;;;
2022/03/09 00:37:37;;;;;;;13.1;9.4;;;;;;;-3.77;38.32422;95651.45;;;;
2022/03/09 00:38:38;;;;;;;13.1;9.4;;;;;;;-3.77;38.32422;95651.45;;;;
2022/03/09 00:39:38;;;;;;;13.1;9.4;;;;;;;-3.77;38.32422;95651.45;;;;
2022/03/09 00:40:39;;;;;;;13.1;9.4;;;;;;;-3.77;38.32422;95651.45;;;;
2022/03/09 00:41:40;;;;;;;13.1;9.4;;;;;;;-3.77;38.32422;95651.45;;;;
2022/03/09 00:42:40;;;;;;;13.1;9.4;;;;;;;-3.77;38.32422;95651.45;;;;
2022/03/09 00:43:42;;;;;;;13.1;9.4;;;;;;;-3.77;38.32422;95651.45;;;;
2022/03/09 00:44:42;;;;;;;13.1;9.4;;;;;;;-3.77;38.32422;95651.45;;;;
2022/03/09 00:45:43;;;;;;;13.1;9.4;;;;;;;-3.77;38.32422;95651.45;;;;
2022/03/09 00:46:43;;;;;;;13.1;9.4;;;;;;;-3.77;38.32422;95651.45;;;;
2022/03/09 00:47:44;;;;;;;12.7;8.9;;;;;;;-3.84;38.90332;95652.57;;;;
2022/03/09 00:48:44;;;;;;;12.7;8.9;;;;;;;-3.84;38.90332;95652.57;;;;
2022/03/09 00:49:45;;;;;;;12.7;8.9;;;;;;;-3.84;38.90332;95652.57;;;;
2022/03/09 00:50:45;;;;;;;12.7;8.9;;;;;;;-3.84;38.90332;95652.57;;;;
2022/03/09 00:51:46;;;;;;;12.7;8.9;;;;;;;-3.84;38.90332;95652.57;;;;
2022/03/09 00:52:47;;;;;;;12.7;8.9;;;;;;;-3.84;38.90332;95652.57;;;;
2022/03/09 00:53:47;;;;;;;12.7;8.9;;;;;;;-3.84;38.90332;95652.57;;;;
2022/03/09 00:54:49;;;;;;;12.7;8.9;;;;;;;-3.84;38.90332;95652.57;;;;
2022/03/09 00:55:49;;;;;;;12.7;8.9;;;;;;;-3.84;38.90332;95652.57;;;;
2022/03/09 00:56:50;;;;;;;12.7;8.9;;;;;;;-3.84;38.90332;95652.57;;;;
2022/03/09 00:57:50;;;;;;;12.7;8.9;;;;;;;-3.84;38.90332;95652.57;;;;
2022/03/09 00:58:51;;;;;;;11.85;7.95;;;;;;;-3.92;39.45996;95639.23;;;;
2022/03/09 00:59:51;;;;;;;11.85;7.95;;;;;;;-3.92;39.45996;95639.23;;;;
2022/03/09 01:00:51;;;;;;;11.85;7.95;;;;;;;-3.92;39.45996;95639.23;;;;
2022/03/09 01:01:52;;;;;;;11.85;7.95;;;;;;;-3.92;39.45996;95639.23;;;;
2022/03/09 01:02:52;;;;;;;11.85;7.95;;;;;;;-3.92;39.45996;95639.23;;;;
2022/03/09 01:03:53;;;;;;;11.85;7.95;;;;;;;-3.92;39.45996;95639.23;;;;
2022/03/09 01:04:53;;;;;;;11.85;7.95;;;;;;;-3.92;39.45996;95639.23;;;;
2022/03/09 01:05:55;;;;;;;11.85;7.95;;;;;;;-3.92;39.45996;95639.23;;;;
2022/03/09 01:06:55;;;;;;;11.85;7.95;;;;;;;-3.92;39.45996;95639.23;;;;
2022/03/09 01:07:56;;;;;;;11.85;7.95;;;;;;;-3.92;39.45996;95639.23;;;;
2022/03/09 01:08:57;;;;;;;11.65;8.149999;;;;;;;-3.99;39.93359;95652.25;;;;
2022/03/09 01:09:58;;;;;;;11.65;8.149999;;;;;;;-3.99;39.93359;95652.25;;;;
2022/03/09 01:10:58;;;;;;;11.65;8.149999;;;;;;;-3.99;39.93359;95652.25;;;;
2022/03/09 01:11:59;;;;;;;11.65;8.149999;;;;;;;-3.99;39.93359;95652.25;;;;
2022/03/09 01:12:59;;;;;;;11.65;8.149999;;;;;;;-3.99;39.93359;95652.25;;;;
2022/03/09 01:14:00;;;;;;;11.65;8.149999;;;;;;;-3.99;39.93359;95652.25;;;;
2022/03/09 01:15:00;;;;;;;11.65;8.149999;;;;;;;-3.99;39.93359;95652.25;;;;
2022/03/09 01:16:01;;;;;;;11.65;8.149999;;;;;;;-3.99;39.93359;95652.25;;;;
2022/03/09 01:17:02;;;;;;;11.65;8.149999;;;;;;;-3.99;39.93359;95652.25;;;;
2022/03/09 01:18:03;;;;;;;11.65;8.149999;;;;;;;-3.99;39.93359;95652.25;;;;
2022/03/09 01:19:03;;;;;;;11.65;8.149999;;;;;;;-3.99;39.93359;95652.25;;;;
2022/03/09 01:20:04;;;;;;;10.75;7.650001;;;;;;;-4.08;40.375;95624.08;;;;
2022/03/09 01:21:06;;;;;;;10.75;7.650001;;;;;;;-4.08;40.375;95624.08;;;;
2022/03/09 01:22:06;;;;;;;10.75;7.650001;;;;;;;-4.08;40.375;95624.08;;;;
2022/03/09 01:23:07;;;;;;;10.75;7.650001;;;;;;;-4.08;40.375;95624.08;;;;
2022/03/09 01:24:07;;;;;;;10.75;7.650001;;;;;;;-4.08;40.375;95624.08;;;;
2022/03/09 01:25:08;;;;;;;10.75;7.650001;;;;;;;-4.08;40.375;95624.08;;;;
2022/03/09 01:26:10;;;;;;;10.75;7.650001;;;;;;;-4.08;40.375;95624.08;;;;
2022/03/09 01:27:10;;;;;;;10.75;7.650001;;;;;;;-4.08;40.375;95624.08;;;;
2022/03/09 01:28:11;;;;;;;10.75;7.650001;;;;;;;-4.08;40.375;95624.08;;;;
2022/03/09 01:29:12;;;;;;;10.75;7.650001;;;;;;;-4.08;40.375;95624.08;;;;
2022/03/09 01:30:13;;;;;;;10.75;7.650001;;;;;;;-4.08;40.375;95624.08;;;;
2022/03/09 01:31:13;;;;;;;10.95;7.85;;;;;;;-4.27;40.7959;95627.06;;;;
2022/03/09 01:32:14;;;;;;;10.95;7.85;;;;;;;-4.27;40.7959;95627.06;;;;
2022/03/09 01:33:14;;;;;;;10.95;7.85;;;;;;;-4.27;40.7959;95627.06;;;;
2022/03/09 01:34:15;;;;;;;10.95;7.85;;;;;;;-4.27;40.7959;95627.06;;;;
2022/03/09 01:35:16;;;;;;;10.95;7.85;;;;;;;-4.27;40.7959;95627.06;;;;
2022/03/09 01:36:16;;;;;;;10.95;7.85;;;;;;;-4.27;40.7959;95627.06;;;;
2022/03/09 01:37:17;;;;;;;10.95;7.85;;;;;;;-4.27;40.7959;95627.06;;;;
2022/03/09 01:38:17;;;;;;;10.95;7.85;;;;;;;-4.27;40.7959;95627.06;;;;
2022/03/09 01:39:20;;;;;;;10.95;7.85;;;;;;;-4.27;40.7959;95627.06;;;;
2022/03/09 01:40:20;;;;;;;10.95;7.85;;;;;;;-4.27;40.7959;95627.06;;;;
2022/03/09 01:41:21;;;;;;;12.95;8.199999;;;;;;;-4.3;41.3457;95615.45;;;;
2022/03/09 01:42:21;;;;;;;12.95;8.199999;;;;;;;-4.3;41.3457;95615.45;;;;
2022/03/09 01:43:22;;;;;;;12.95;8.199999;;;;;;;-4.3;41.3457;95615.45;;;;
2022/03/09 01:44:22;;;;;;;12.95;8.199999;;;;;;;-4.3;41.3457;95615.45;;;;
2022/03/09 01:45:25;;;;;;;12.95;8.199999;;;;;;;-4.3;41.3457;95615.45;;;;
2022/03/09 01:46:25;;;;;;;12.95;8.199999;;;;;;;-4.3;41.3457;95615.45;;;;
2022/03/09 01:47:26;;;;;;;12.95;8.199999;;;;;;;-4.3;41.3457;95615.45;;;;
2022/03/09 01:48:26;;;;;;;12.95;8.199999;;;;;;;-4.3;41.3457;95615.45;;;;
2022/03/09 01:49:27;;;;;;;12.95;8.199999;;;;;;;-4.3;41.3457;95615.45;;;;
2022/03/09 01:50:27;;;;;;;12.95;8.199999;;;;;;;-4.3;41.3457;95615.45;;;;
2022/03/09 01:51:28;;;;;;;12.95;8.199999;;;;;;;-4.3;41.3457;95615.45;;;;
2022/03/09 01:52:31;;;;;;;12.95;8.200001;;;;;;;-4.38;41.6084;95617.11;;;;
2022/03/09 01:53:33;;;;;;;12.95;8.200001;;;;;;;-4.38;41.6084;95617.11;;;;
2022/03/09 01:54:33;;;;;;;12.95;8.200001;;;;;;;-4.38;41.6084;95617.11;;;;
2022/03/09 01:55:34;;;;;;;12.95;8.200001;;;;;;;-4.38;41.6084;95617.11;;;;
2022/03/09 01:56:35;;;;;;;12.95;8.200001;;;;;;;-4.38;41.6084;95617.11;;;;
2022/03/09 01:57:36;;;;;;;12.95;8.200001;;;;;;;-4.38;41.6084;95617.11;;;;
2022/03/09 01:58:37;;;;;;;12.95;8.200001;;;;;;;-4.38;41.6084;95617.11;;;;
2022/03/09 01:59:39;;;;;;;12.95;8.200001;;;;;;;-4.38;41.6084;95617.11;;;;
2022/03/09 02:00:40;;;;;;;12.95;8.200001;;;;;;;-4.38;41.6084;95617.11;;;;
2022/03/09 02:01:41;;;;;;;12.95;8.200001;;;;;;;-4.38;41.6084;95617.11;;;;
2022/03/09 02:02:42;;;;;;;14.25;8.950001;;;;;;;-4.52;42.08496;95615.31;;;;
2022/03/09 02:03:43;;;;;;;14.25;8.950001;;;;;;;-4.52;42.08496;95615.31;;;;
2022/03/09 02:04:43;;;;;;;14.25;8.950001;;;;;;;-4.52;42.08496;95615.31;;;;
2022/03/09 02:05:45;;;;;;;14.25;8.950001;;;;;;;-4.52;42.08496;95615.31;;;;
2022/03/09 02:06:46;;;;;;;14.25;8.950001;;;;;;;-4.52;42.08496;95615.31;;;;
2022/03/09 02:13:01;;;;;;;11.9;8.5;;;;;;;-4.68;42.44434;95605.8;;;;
2022/03/09 02:14:01;;;;;;;11.9;8.5;;;;;;;-4.68;42.44434;95605.8;;;;
2022/03/09 02:15:03;;;;;;;11.9;8.5;;;;;;;-4.68;42.44434;95605.8;;;;
2022/03/09 02:16:04;;;;;;;11.9;8.5;;;;;;;-4.68;42.44434;95605.8;;;;
2022/03/09 02:17:05;;;;;;;11.9;8.5;;;;;;;-4.68;42.44434;95605.8;;;;
2022/03/09 02:18:08;;;;;;;11.9;8.5;;;;;;;-4.68;42.44434;95605.8;;;;
2022/03/09 02:19:08;;;;;;;11.9;8.5;;;;;;;-4.68;42.44434;95605.8;;;;
2022/03/09 02:20:09;;;;;;;11.9;8.5;;;;;;;-4.68;42.44434;95605.8;;;;
2022/03/09 02:21:10;;;;;;;11.9;8.5;;;;;;;-4.68;42.44434;95605.8;;;;
2022/03/09 02:22:15;;;;;;;11.9;8.5;;;;;;;-4.68;42.44434;95605.8;;;;
2022/03/09 02:23:25;;;;;;;11.9;8.5;;;;;;;-4.68;42.44434;95605.8;;;;
2022/03/09 02:24:26;;;;;;;11.95;8.000002;;;;;;;-4.85;42.82227;95622.66;;;;
2022/03/09 02:25:26;;;;;;;11.95;8.000002;;;;;;;-4.85;42.82227;95622.66;;;;
2022/03/09 02:26:27;;;;;;;11.95;8.000002;;;;;;;-4.85;42.82227;95622.66;;;;
2022/03/09 02:27:28;;;;;;;11.95;8.000002;;;;;;;-4.85;42.82227;95622.66;;;;
2022/03/09 02:28:28;;;;;;;11.95;8.000002;;;;;;;-4.85;42.82227;95622.66;;;;
2022/03/09 02:29:29;;;;;;;11.95;8.000002;;;;;;;-4.85;42.82227;95622.66;;;;
2022/03/09 02:30:29;;;;;;;11.95;8.000002;;;;;;;-4.85;42.82227;95622.66;;;;
2022/03/09 02:31:30;;;;;;;11.95;8.000002;;;;;;;-4.85;42.82227;95622.66;;;;
2022/03/09 02:32:31;;;;;;;11.95;8.000002;;;;;;;-4.85;42.82227;95622.66;;;;
2022/03/09 02:33:32;;;;;;;11.95;8.000002;;;;;;;-4.85;42.82227;95622.66;;;;
2022/03/09 02:34:32;;;;;;;11.95;8.000002;;;;;;;-4.85;42.82227;95622.66;;;;
2022/03/09 02:35:33;;;;;;;11.95;8.000002;;;;;;;-4.85;42.82227;95622.66;;;;
2022/03/09 02:36:33;;;;;;;11.95;8.000002;;;;;;;-4.85;42.82227;95622.66;;;;
2022/03/09 02:37:34;;;;;;;11.95;8.000002;;;;;;;-4.85;42.82227;95622.66;;;;
2022/03/09 02:38:34;;;;;;;11.95;8.000002;;;;;;;-4.85;42.82227;95622.66;;;;
2022/03/09 02:39:35;;;;;;;11.95;8.000002;;;;;;;-4.85;42.82227;95622.66;;;;
2022/03/09 02:40:35;;;;;;;11.95;8.000002;;;;;;;-4.85;42.82227;95622.66;;;;
2022/03/09 02:41:36;;;;;;;11.95;8.000002;;;;;;;-4.85;42.82227;95622.66;;;;
2022/03/09 02:42:36;;;;;;;11.95;8.000002;;;;;;;-4.85;42.82227;95622.66;;;;
2022/03/09 02:43:37;;;;;;;11.95;8.000002;;;;;;;-4.85;42.82227;95622.66;;;;
2022/03/09 02:44:38;;;;;;;11.95;8.000002;;;;;;;-4.85;42.82227;95622.66;;;;
2022/03/09 02:45:38;;;;;;;12.85;7.799999;;;;;;;-5.1;43.61914;95597.24;;;;
2022/03/09 02:46:39;;;;;;;12.85;7.799999;;;;;;;-5.1;43.61914;95597.24;;;;
2022/03/09 02:47:40;;;;;;;12.85;7.799999;;;;;;;-5.1;43.61914;95597.24;;;;
2022/03/09 02:48:41;;;;;;;12.85;7.799999;;;;;;;-5.1;43.61914;95597.24;;;;
2022/03/09 02:49:41;;;;;;;12.85;7.799999;;;;;;;-5.1;43.61914;95597.24;;;;
2022/03/09 02:50:42;;;;;;;12.85;7.799999;;;;;;;-5.1;43.61914;95597.24;;;;
2022/03/09 02:51:42;;;;;;;12.85;7.799999;;;;;;;-5.1;43.61914;95597.24;;;;
2022/03/09 02:52:44;;;;;;;12.85;7.799999;;;;;;;-5.1;43.61914;95597.24;;;;
2022/03/09 02:53:44;;;;;;;12.85;7.799999;;;;;;;-5.1;43.61914;95597.24;;;;
2022/03/09 02:54:45;;;;;;;12.85;7.799999;;;;;;;-5.1;43.61914;95597.24;;;;
2022/03/09 02:55:46;;;;;;;11.4;7.6;;;;;;;-5.16;43.95508;95608.36;;;;
2022/03/09 02:56:46;;;;;;;11.4;7.6;;;;;;;-5.16;43.95508;95608.36;;;;
2022/03/09 02:57:47;;;;;;;11.4;7.6;;;;;;;-5.16;43.95508;95608.36;;;;
2022/03/09 02:58:47;;;;;;;11.4;7.6;;;;;;;-5.16;43.95508;95608.36;;;;
2022/03/09 02:59:49;;;;;;;11.4;7.6;;;;;;;-5.16;43.95508;95608.36;;;;
2022/03/09 03:00:49;;;;;;;11.4;7.6;;;;;;;-5.16;43.95508;95608.36;;;;
2022/03/09 03:01:50;;;;;;;11.4;7.6;;;;;;;-5.16;43.95508;95608.36;;;;
2022/03/09 03:02:50;;;;;;;11.4;7.6;;;;;;;-5.16;43.95508;95608.36;;;;
2022/03/09 03:03:51;;;;;;;11.4;7.6;;;;;;;-5.16;43.95508;95608.36;;;;
2022/03/09 03:04:51;;;;;;;11.4;7.6;;;;;;;-5.16;43.95508;95608.36;;;;
2022/03/09 03:05:52;;;;;;;11.4;7.6;;;;;;;-5.16;43.95508;95608.36;;;;
2022/03/09 03:06:52;;;;;;;11.25;7.400001;;;;;;;-5.14;44.15527;95607.75;;;;
2022/03/09 03:07:53;;;;;;;11.25;7.400001;;;;;;;-5.14;44.15527;95607.75;;;;
2022/03/09 03:08:54;;;;;;;11.25;7.400001;;;;;;;-5.14;44.15527;95607.75;;;;
2022/03/09 03:09:55;;;;;;;11.25;7.400001;;;;;;;-5.14;44.15527;95607.75;;;;
2022/03/09 03:10:55;;;;;;;11.25;7.400001;;;;;;;-5.14;44.15527;95607.75;;;;
2022/03/09 03:11:56;;;;;;;11.25;7.400001;;;;;;;-5.14;44.15527;95607.75;;;;
2022/03/09 03:12:56;;;;;;;11.25;7.400001;;;;;;;-5.14;44.15527;95607.75;;;;
2022/03/09 03:13:57;;;;;;;11.25;7.400001;;;;;;;-5.14;44.15527;95607.75;;;;
2022/03/09 03:14:57;;;;;;;11.25;7.400001;;;;;;;-5.14;44.15527;95607.75;;;;
2022/03/09 03:15:58;;;;;;;11.25;7.400001;;;;;;;-5.14;44.15527;95607.75;;;;
2022/03/09 03:16:58;;;;;;;11.25;7.400001;;;;;;;-5.14;44.15527;95607.75;;;;
2022/03/09 03:17:59;;;;;;;9.899999;7.249999;;;;;;;-5.18;44.36035;95614.15;;;;
2022/03/09 03:19:00;;;;;;;9.899999;7.249999;;;;;;;-5.18;44.36035;95614.15;;;;
2022/03/09 03:20:00;;;;;;;9.899999;7.249999;;;;;;;-5.18;44.36035;95614.15;;;;
2022/03/09 03:21:01;;;;;;;9.899999;7.249999;;;;;;;-5.18;44.36035;95614.15;;;;
2022/03/09 03:22:04;;;;;;;9.899999;7.249999;;;;;;;-5.18;44.36035;95614.15;;;;
2022/03/09 03:23:04;;;;;;;9.899999;7.249999;;;;;;;-5.18;44.36035;95614.15;;;;
2022/03/09 03:24:05;;;;;;;9.899999;7.249999;;;;;;;-5.18;44.36035;95614.15;;;;
2022/03/09 03:25:06;;;;;;;9.899999;7.249999;;;;;;;-5.18;44.36035;95614.15;;;;
2022/03/09 03:26:07;;;;;;;9.899999;7.249999;;;;;;;-5.18;44.36035;95614.15;;;;
2022/03/09 03:27:07;;;;;;;9.899999;7.249999;;;;;;;-5.18;44.36035;95614.15;;;;
2022/03/09 03:28:08;;;;;;;9.899999;7.249999;;;;;;;-5.18;44.36035;95614.15;;;;
2022/03/09 03:29:08;;;;;;;9.899999;7.249999;;;;;;;-5.18;44.36035;95614.15;;;;
2022/03/09 03:30:09;;;;;;;9.899999;7.249999;;;;;;;-5.18;44.36035;95614.15;;;;
2022/03/09 03:31:10;;;;;;;9.899999;7.249999;;;;;;;-5.18;44.36035;95614.15;;;;
2022/03/09 03:32:11;;;;;;;9.899999;7.249999;;;;;;;-5.18;44.36035;95614.15;;;;
2022/03/09 03:33:11;;;;;;;9.899999;7.249999;;;;;;;-5.18;44.36035;95614.15;;;;
2022/03/09 03:34:13;;;;;;;9.899999;7.249999;;;;;;;-5.18;44.36035;95614.15;;;;
2022/03/09 03:35:14;;;;;;;9.899999;7.249999;;;;;;;-5.18;44.36035;95614.15;;;;
2022/03/09 03:36:14;;;;;;;9.899999;7.249999;;;;;;;-5.18;44.36035;95614.15;;;;
2022/03/09 03:37:15;;;;;;;9.899999;7.249999;;;;;;;-5.18;44.36035;95614.15;;;;
2022/03/09 03:38:15;;;;;;;9.899999;7.249999;;;;;;;-5.18;44.36035;95614.15;;;;
2022/03/09 03:39:17;;;;;;;10.45;7.4;;;;;;;-5.31;44.9707;95629.83;;;;
2022/03/09 03:40:17;;;;;;;10.45;7.4;;;;;;;-5.31;44.9707;95629.83;;;;
2022/03/09 03:41:17;;;;;;;10.45;7.4;;;;;;;-5.31;44.9707;95629.83;;;;
2022/03/09 03:42:18;;;;;;;10.45;7.4;;;;;;;-5.31;44.9707;95629.83;;;;
2022/03/09 03:43:18;;;;;;;10.45;7.4;;;;;;;-5.31;44.9707;95629.83;;;;
2022/03/09 03:44:19;;;;;;;10.45;7.4;;;;;;;-5.31;44.9707;95629.83;;;;
2022/03/09 03:45:19;;;;;;;10.45;7.4;;;;;;;-5.31;44.9707;95629.83;;;;
2022/03/09 03:46:20;;;;;;;10.45;7.4;;;;;;;-5.31;44.9707;95629.83;;;;
2022/03/09 03:47:21;;;;;;;10.45;7.4;;;;;;;-5.31;44.9707;95629.83;;;;
2022/03/09 03:48:21;;;;;;;10.45;7.4;;;;;;;-5.31;44.9707;95629.83;;;;
2022/03/09 03:49:22;;;;;;;10.65;8;;;;;;;-5.38;45.18164;95650.97;;;;
2022/03/09 03:50:22;;;;;;;10.65;8;;;;;;;-5.38;45.18164;95650.97;;;;
2022/03/09 03:51:23;;;;;;;10.65;8;;;;;;;-5.38;45.18164;95650.97;;;;
2022/03/09 03:52:24;;;;;;;10.65;8;;;;;;;-5.38;45.18164;95650.97;;;;
2022/03/09 03:53:25;;;;;;;10.65;8;;;;;;;-5.38;45.18164;95650.97;;;;
2022/03/09 03:54:25;;;;;;;10.65;8;;;;;;;-5.38;45.18164;95650.97;;;;
2022/03/09 03:55:25;;;;;;;10.65;8;;;;;;;-5.38;45.18164;95650.97;;;;
2022/03/09 03:56:26;;;;;;;10.65;8;;;;;;;-5.38;45.18164;95650.97;;;;
2022/03/09 03:57:27;;;;;;;10.65;8;;;;;;;-5.38;45.18164;95650.97;;;;
2022/03/09 03:58:27;;;;;;;10.65;8;;;;;;;-5.38;45.18164;95650.97;;;;
2022/03/09 03:59:28;;;;;;;10.65;8;;;;;;;-5.38;45.18164;95650.97;;;;
2022/03/09 04:00:28;;;;;;;10.75;8.050001;;;;;;;-5.47;45.44141;95661.05;;;;
2022/03/09 04:01:29;;;;;;;10.75;8.050001;;;;;;;-5.47;45.44141;95661.05;;;;
2022/03/09 04:02:29;;;;;;;10.75;8.050001;;;;;;;-5.47;45.44141;95661.05;;;;
2022/03/09 04:03:30;;;;;;;10.75;8.050001;;;;;;;-5.47;45.44141;95661.05;;;;
2022/03/09 04:04:30;;;;;;;10.75;8.050001;;;;;;;-5.47;45.44141;95661.05;;;;
2022/03/09 04:05:31;;;;;;;10.75;8.050001;;;;;;;-5.47;45.44141;95661.05;;;;
2022/03/09 04:06:31;;;;;;;10.75;8.050001;;;;;;;-5.47;45.44141;95661.05;;;;
2022/03/09 04:07:32;;;;;;;10.75;8.050001;;;;;;;-5.47;45.44141;95661.05;;;;
2022/03/09 04:08:33;;;;;;;10.75;8.050001;;;;;;;-5.47;45.44141;95661.05;;;;
2022/03/09 04:09:33;;;;;;;10.75;8.050001;;;;;;;-5.47;45.44141;95661.05;;;;
2022/03/09 04:10:34;;;;;;;11.1;7.75;;;;;;;-5.66;45.79395;95675.79;;;;
2022/03/09 04:11:34;;;;;;;11.1;7.75;;;;;;;-5.66;45.79395;95675.79;;;;
2022/03/09 04:12:35;;;;;;;11.1;7.75;;;;;;;-5.66;45.79395;95675.79;;;;
2022/03/09 04:13:35;;;;;;;11.1;7.75;;;;;;;-5.66;45.79395;95675.79;;;;
2022/03/09 04:14:36;;;;;;;11.1;7.75;;;;;;;-5.66;45.79395;95675.79;;;;
2022/03/09 04:15:36;;;;;;;11.1;7.75;;;;;;;-5.66;45.79395;95675.79;;;;
2022/03/09 04:16:37;;;;;;;11.1;7.75;;;;;;;-5.66;45.79395;95675.79;;;;
2022/03/09 04:17:37;;;;;;;11.1;7.75;;;;;;;-5.66;45.79395;95675.79;;;;
2022/03/09 04:18:39;;;;;;;11.1;7.75;;;;;;;-5.66;45.79395;95675.79;;;;
2022/03/09 04:19:40;;;;;;;11.1;7.75;;;;;;;-5.66;45.79395;95675.79;;;;
2022/03/09 04:20:41;;;;;;;11.1;7.75;;;;;;;-5.66;45.79395;95675.79;;;;
2022/03/09 04:21:41;;;;;;;11.45;8.050001;;;;;;;-5.8;46.25586;95691.47;;;;
2022/03/09 04:22:42;;;;;;;11.45;8.050001;;;;;;;-5.8;46.25586;95691.47;;;;
2022/03/09 04:23:43;;;;;;;11.45;8.050001;;;;;;;-5.8;46.25586;95691.47;;;;
2022/03/09 04:24:43;;;;;;;11.45;8.050001;;;;;;;-5.8;46.25586;95691.47;;;;
2022/03/09 04:25:44;;;;;;;11.45;8.050001;;;;;;;-5.8;46.25586;95691.47;;;;
2022/03/09 04:26:44;;;;;;;11.45;8.050001;;;;;;;-5.8;46.25586;95691.47;;;;
2022/03/09 04:27:45;;;;;;;11.45;8.050001;;;;;;;-5.8;46.25586;95691.47;;;;
2022/03/09 04:28:46;;;;;;;11.45;8.050001;;;;;;;-5.8;46.25586;95691.47;;;;
2022/03/09 04:29:46;;;;;;;11.45;8.050001;;;;;;;-5.8;46.25586;95691.47;;;;
2022/03/09 04:30:47;;;;;;;11.45;8.050001;;;;;;;-5.8;46.25586;95691.47;;;;
2022/03/09 04:31:47;;;;;;;11.55;7.85;;;;;;;-5.86;46.58301;95698.52;;;;
2022/03/09 04:32:48;;;;;;;11.55;7.85;;;;;;;-5.86;46.58301;95698.52;;;;
2022/03/09 04:33:49;;;;;;;11.55;7.85;;;;;;;-5.86;46.58301;95698.52;;;;
2022/03/09 04:34:49;;;;;;;11.55;7.85;;;;;;;-5.86;46.58301;95698.52;;;;
2022/03/09 04:35:49;;;;;;;11.55;7.85;;;;;;;-5.86;46.58301;95698.52;;;;
2022/03/09 04:36:50;;;;;;;11.55;7.85;;;;;;;-5.86;46.58301;95698.52;;;;
2022/03/09 04:37:51;;;;;;;11.55;7.85;;;;;;;-5.86;46.58301;95698.52;;;;
2022/03/09 04:38:51;;;;;;;11.55;7.85;;;;;;;-5.86;46.58301;95698.52;;;;
2022/03/09 04:39:53;;;;;;;11.55;7.85;;;;;;;-5.86;46.58301;95698.52;;;;
2022/03/09 04:40:54;;;;;;;11.55;7.85;;;;;;;-5.86;46.58301;95698.52;;;;
2022/03/09 04:41:54;;;;;;;11.55;7.85;;;;;;;-5.86;46.58301;95698.52;;;;
2022/03/09 04:42:55;;;;;;;12.1;8.15;;;;;;;-5.81;46.84766;95702.87;;;;
2022/03/09 04:43:55;;;;;;;12.1;8.15;;;;;;;-5.81;46.84766;95702.87;;;;
2022/03/09 04:44:56;;;;;;;12.1;8.15;;;;;;;-5.81;46.84766;95702.87;;;;
2022/03/09 04:45:57;;;;;;;12.1;8.15;;;;;;;-5.81;46.84766;95702.87;;;;
2022/03/09 04:46:57;;;;;;;12.1;8.15;;;;;;;-5.81;46.84766;95702.87;;;;
2022/03/09 04:47:58;;;;;;;12.1;8.15;;;;;;;-5.81;46.84766;95702.87;;;;
2022/03/09 04:48:59;;;;;;;12.1;8.15;;;;;;;-5.81;46.84766;95702.87;;;;
2022/03/09 04:49:59;;;;;;;12.1;8.15;;;;;;;-5.81;46.84766;95702.87;;;;
2022/03/09 04:51:02;;;;;;;12.1;8.15;;;;;;;-5.81;46.84766;95702.87;;;;
2022/03/09 04:52:03;;;;;;;12.1;8.15;;;;;;;-5.81;46.84766;95702.87;;;;
2022/03/09 04:53:04;;;;;;;12;8.200001;;;;;;;-5.77;47.02832;95703.45;;;;
2022/03/09 04:54:04;;;;;;;12;8.200001;;;;;;;-5.77;47.02832;95703.45;;;;
2022/03/09 04:55:05;;;;;;;12;8.200001;;;;;;;-5.77;47.02832;95703.45;;;;
2022/03/09 04:56:07;;;;;;;12;8.200001;;;;;;;-5.77;47.02832;95703.45;;;;
2022/03/09 04:57:07;;;;;;;12;8.200001;;;;;;;-5.77;47.02832;95703.45;;;;
2022/03/09 04:58:08;;;;;;;12;8.200001;;;;;;;-5.77;47.02832;95703.45;;;;
2022/03/09 04:59:09;;;;;;;12;8.200001;;;;;;;-5.77;47.02832;95703.45;;;;
2022/03/09 05:00:10;;;;;;;12;8.200001;;;;;;;-5.77;47.02832;95703.45;;;;
2022/03/09 05:01:11;;;;;;;12;8.200001;;;;;;;-5.77;47.02832;95703.45;;;;
2022/03/09 05:02:12;;;;;;;12;8.200001;;;;;;;-5.77;47.02832;95703.45;;;;
2022/03/09 05:03:12;;;;;;;12;8.200001;;;;;;;-5.77;47.02832;95703.45;;;;
2022/03/09 05:04:13;;;;;;;12.95;8.900001;;;;;;;-5.77;47.29785;95702.56;;;;
2022/03/09 05:05:13;;;;;;;12.95;8.900001;;;;;;;-5.77;47.29785;95702.56;;;;
2022/03/09 05:06:14;;;;;;;12.95;8.900001;;;;;;;-5.77;47.29785;95702.56;;;;
2022/03/09 05:07:15;;;;;;;12.95;8.900001;;;;;;;-5.77;47.29785;95702.56;;;;
2022/03/09 05:08:15;;;;;;;12.95;8.900001;;;;;;;-5.77;47.29785;95702.56;;;;
2022/03/09 05:09:16;;;;;;;12.95;8.900001;;;;;;;-5.77;47.29785;95702.56;;;;
2022/03/09 05:10:16;;;;;;;12.95;8.900001;;;;;;;-5.77;47.29785;95702.56;;;;
2022/03/09 05:11:17;;;;;;;12.95;8.900001;;;;;;;-5.77;47.29785;95702.56;;;;
2022/03/09 05:12:18;;;;;;;12.95;8.900001;;;;;;;-5.77;47.29785;95702.56;;;;
2022/03/09 05:13:20;;;;;;;12.95;8.900001;;;;;;;-5.77;47.29785;95702.56;;;;
2022/03/09 05:14:21;;;;;;;12.95;8.900001;;;;;;;-5.77;47.29785;95702.56;;;;
2022/03/09 05:15:21;;;;;;;13.65;9.099998;;;;;;;-5.73;47.46875;95712.77;;;;
2022/03/09 05:16:22;;;;;;;13.65;9.099998;;;;;;;-5.73;47.46875;95712.77;;;;
2022/03/09 05:17:23;;;;;;;13.65;9.099998;;;;;;;-5.73;47.46875;95712.77;;;;
2022/03/09 05:18:23;;;;;;;13.65;9.099998;;;;;;;-5.73;47.46875;95712.77;;;;
2022/03/09 05:19:24;;;;;;;13.65;9.099998;;;;;;;-5.73;47.46875;95712.77;;;;
2022/03/09 05:20:24;;;;;;;13.65;9.099998;;;;;;;-5.73;47.46875;95712.77;;;;
2022/03/09 05:21:25;;;;;;;13.65;9.099998;;;;;;;-5.73;47.46875;95712.77;;;;
2022/03/09 05:22:25;;;;;;;13.65;9.099998;;;;;;;-5.73;47.46875;95712.77;;;;
2022/03/09 05:23:26;;;;;;;13.65;9.099998;;;;;;;-5.73;47.46875;95712.77;;;;
2022/03/09 05:24:26;;;;;;;13.65;9.099998;;;;;;;-5.73;47.46875;95712.77;;;;
2022/03/09 05:25:28;;;;;;;12;8.650001;;;;;;;-5.83;47.70703;95725.05;;;;
2022/03/09 05:26:28;;;;;;;12;8.650001;;;;;;;-5.83;47.70703;95725.05;;;;
2022/03/09 05:27:29;;;;;;;12;8.650001;;;;;;;-5.83;47.70703;95725.05;;;;
2022/03/09 05:28:29;;;;;;;12;8.650001;;;;;;;-5.83;47.70703;95725.05;;;;
2022/03/09 05:29:30;;;;;;;12;8.650001;;;;;;;-5.83;47.70703;95725.05;;;;
2022/03/09 05:30:30;;;;;;;12;8.650001;;;;;;;-5.83;47.70703;95725.05;;;;
2022/03/09 05:31:31;;;;;;;12;8.650001;;;;;;;-5.83;47.70703;95725.05;;;;
2022/03/09 05:32:32;;;;;;;12;8.650001;;;;;;;-5.83;47.70703;95725.05;;;;
2022/03/09 05:33:32;;;;;;;12;8.650001;;;;;;;-5.83;47.70703;95725.05;;;;
2022/03/09 05:34:33;;;;;;;12;8.650001;;;;;;;-5.83;47.70703;95725.05;;;;
2022/03/09 05:35:33;;;;;;;12;8.650001;;;;;;;-5.83;47.70703;95725.05;;;;